Time;durP1;ratioP1;P1;durP2;ratioP2;P2;SDS_P1;SDS_P2;PMS_P1;PMS_P2;Temp;Humidity;BMP_temperature;BMP_pressure;BME280_temperature;BME280_humidity;BME280_pressure;Samples;Min_cycle;Max_cycle;Signal;HPM_P1;HPM_P2
2022/03/23 00:02:49;;;;;;;;;;;;;;;-139.34;100.00;63888.56;10597307;27;19942;-63
2022/03/23 00:08:11;;;;;;;;;;;;;;;-139.34;100.00;63888.56;10613764;27;19925;-63
2022/03/23 00:13:33;;;;;;;;;;;;;;;-139.34;100.00;63888.56;10600877;27;19923;-63
2022/03/23 00:18:54;;;;;;;;;;;;;;;-139.34;100.00;63888.56;10590043;27;19921;-63
2022/03/23 00:24:16;;;;;;;;;;;;;;;-139.34;100.00;63888.56;10588999;27;20436;-63
2022/03/23 00:29:37;;;;;;;;;;;;;;;-139.34;100.00;63888.56;10598550;27;19926;-63
2022/03/23 00:34:59;;;;;;;;;;;;;;;-139.34;100.00;63888.56;10594417;27;19923;-63
2022/03/23 00:40:21;;;;;;;;;;;;;;;-139.34;100.00;63888.56;10570484;27;20250;-63
2022/03/23 00:45:42;;;;;;;;;;;;;;;-139.34;100.00;63888.56;10604502;27;19930;-63
2022/03/23 00:51:05;;;;;;;;;;;;;;;-139.34;100.00;63888.56;10600173;27;19926;-63
2022/03/23 00:56:27;;;;;;;;;;;;;;;-139.34;100.00;63888.56;10589644;27;20607;-63
2022/03/23 01:01:49;;;;;;;;;;;;;;;-139.34;100.00;63888.56;10617126;27;19923;-63
2022/03/23 01:07:10;;;;;;;;;;;;;;;-139.34;100.00;63888.56;10626790;27;19926;-63
2022/03/23 01:12:32;;;;;;;;;;;;;;;-139.34;100.00;63888.56;10616464;27;19927;-63
2022/03/23 01:17:53;;;;;;;;;;;;;;;-139.34;100.00;63888.56;10586645;27;19928;-63
2022/03/23 01:23:15;;;;;;;;;;;;;;;-139.34;100.00;63888.56;10599758;27;19937;-64
2022/03/23 01:28:36;;;;;;;;;;;;;;;-139.34;100.00;63888.56;10613751;27;19919;-64
2022/03/23 01:33:59;;;;;;;;;;;;;;;-139.34;100.00;63888.56;10603079;27;20288;-63
2022/03/23 01:39:21;;;;;;;;;;;;;;;-139.34;100.00;63888.56;10626996;27;20399;-63
2022/03/23 01:44:42;;;;;;;;;;;;;;;-139.34;100.00;63888.56;10619372;27;19919;-64
2022/03/23 01:50:05;;;;;;;;;;;;;;;-139.34;100.00;63888.56;10599511;27;19919;-63
2022/03/23 01:55:26;;;;;;;;;;;;;;;-139.34;100.00;63888.56;10652650;27;20260;-63
2022/03/23 02:00:48;;;;;;;;;;;;;;;-139.34;100.00;63888.56;10595810;27;19923;-64
2022/03/23 02:06:10;;;;;;;;;;;;;;;-139.34;100.00;63888.56;10589355;27;19919;-62
2022/03/23 02:11:32;;;;;;;;;;;;;;;-139.34;100.00;63888.56;10650096;27;19927;-62
2022/03/23 02:16:59;;;;;;;;;;;;;;;-139.34;100.00;63888.56;10581686;27;19920;-62
2022/03/23 02:22:21;;;;;;;;;;;;;;;-139.34;100.00;63888.56;10584179;27;19927;-62
2022/03/23 02:27:43;;;;;;;;;;;;;;;-139.34;100.00;63888.56;10612421;27;19934;-62
2022/03/23 02:33:04;;;;;;;;;;;;;;;-139.34;100.00;63888.56;10612088;27;20346;-62
2022/03/23 02:38:27;;;;;;;;;;;;;;;-139.34;100.00;63888.56;10601841;27;20395;-62
2022/03/23 02:43:50;;;;;;;;;;;;;;;-139.34;100.00;63888.56;10595262;27;19926;-62
2022/03/23 02:49:11;;;;;;;;;;;;;;;-139.34;100.00;63888.56;10608798;27;19919;-62
2022/03/23 03:06:12;;;;;;;;;;;;;;;-139.34;100.00;63888.56;10575226;27;20015;-62
2022/03/23 03:11:34;;;;;;;;;;;;;;;-139.34;100.00;63888.56;10566061;28;19923;-63
2022/03/23 03:16:56;;;;;;;;;;;;;;;-139.34;100.00;63888.56;10577164;28;19919;-62
2022/03/23 03:22:18;;;;;;;;;;;;;;;-139.34;100.00;63888.56;10602247;27;19923;-63
2022/03/23 03:27:40;;;;;;;;;;;;;;;-139.34;100.00;63888.56;10609232;27;20002;-62
2022/03/23 03:33:02;;;;;;;;;;;;;;;-139.34;100.00;63888.56;10636858;27;19918;-63
2022/03/23 03:38:23;;;;;;;;;;;;;;;-139.34;100.00;63888.56;10626964;27;19926;-62
2022/03/23 03:43:46;;;;;;;;;;;;;;;-139.34;100.00;63888.56;10607090;27;19946;-62
2022/03/23 03:49:07;;;;;;;;;;;;;;;-139.34;100.00;63888.56;10626878;27;19977;-62
2022/03/23 03:54:29;;;;;;;;;;;;;;;-139.34;100.00;63888.56;10591375;27;19928;-62
2022/03/23 03:59:51;;;;;;;;;;;;;;;-139.34;100.00;63888.56;10636790;27;19919;-62
2022/03/23 04:05:12;;;;;;;;;;;;;;;-139.34;100.00;63888.56;10599075;27;20379;-62
2022/03/23 04:10:33;;;;;;;;;;;;;;;-139.34;100.00;63888.56;10604674;27;19925;-62
2022/03/23 04:15:55;;;;;;;;;;;;;;;-139.34;100.00;63888.56;10620280;27;20447;-62
2022/03/23 04:21:17;;;;;;;;;;;;;;;-139.34;100.00;63888.56;10631694;27;20310;-62
2022/03/23 04:26:38;;;;;;;;;;;;;;;-139.34;100.00;63888.56;10657923;27;20343;-62
2022/03/23 04:32:00;;;;;;;;;;;;;;;-139.34;100.00;63888.56;10594727;27;20118;-62
2022/03/23 04:37:21;;;;;;;;;;;;;;;-139.34;100.00;63888.56;10604736;27;20267;-62
2022/03/23 04:42:44;;;;;;;;;;;;;;;-139.34;100.00;63888.56;10617289;27;20039;-62
2022/03/23 04:48:06;;;;;;;;;;;;;;;-139.34;100.00;63888.56;10623668;27;20276;-62
2022/03/23 04:53:28;;;;;;;;;;;;;;;-139.34;100.00;63888.56;10588898;27;19919;-62
2022/03/23 04:58:49;;;;;;;;;;;;;;;-139.34;100.00;63888.56;10624522;27;19929;-62
2022/03/23 05:04:11;;;;;;;;;;;;;;;-139.34;100.00;63888.56;10641857;27;19935;-62
2022/03/23 05:09:33;;;;;;;;;;;;;;;-139.34;100.00;63888.56;10587232;27;19927;-62
2022/03/23 05:14:54;;;;;;;;;;;;;;;-139.34;100.00;63888.56;10601003;27;19926;-62
2022/03/23 05:20:18;;;;;;;;;;;;;;;-139.34;100.00;63888.56;10554881;28;19943;-62
2022/03/23 05:25:39;;;;;;;;;;;;;;;-139.34;100.00;63888.56;10560776;28;20288;-62
2022/03/23 05:31:01;;;;;;;;;;;;;;;-139.34;100.00;63888.56;10595561;27;20314;-62
2022/03/23 05:36:23;;;;;;;;;;;;;;;-139.34;100.00;63888.56;10605555;27;20057;-62
2022/03/23 05:41:44;;;;;;;;;;;;;;;-139.34;100.00;63888.56;10569755;28;19926;-62
2022/03/23 05:47:06;;;;;;;;;;;;;;;-139.34;100.00;63888.56;10591158;28;20019;-62
2022/03/23 05:52:28;;;;;;;;;;;;;;;-139.34;100.00;63888.56;10562833;28;19931;-62
2022/03/23 05:57:50;;;;;;;;;;;;;;;-139.34;100.00;63888.56;10584349;28;19927;-62
2022/03/23 06:03:12;;;;;;;;;;;;;;;-139.34;100.00;63888.56;10560958;28;19923;-62
2022/03/23 06:08:33;;;;;;;;;;;;;;;-139.34;100.00;63888.56;10581903;28;19953;-62
2022/03/23 06:13:56;;;;;;;;;;;;;;;-139.34;100.00;63888.56;10564716;28;19919;-62
2022/03/23 06:19:17;;;;;;;;;;;;;;;-139.34;100.00;63888.56;10614615;28;19989;-62
2022/03/23 06:24:39;;;;;;;;;;;;;;;-139.34;100.00;63888.56;10564687;28;19930;-62
2022/03/23 06:30:01;;;;;;;;;;;;;;;-139.34;100.00;63888.56;10598499;28;20330;-63
2022/03/23 06:35:24;;;;;;;;;;;;;;;-139.34;100.00;63888.56;10632027;27;19919;-63
2022/03/23 06:40:45;;;;;;;;;;;;;;;-139.34;100.00;63888.56;10593489;27;20255;-63
2022/03/23 06:46:07;;;;;;;;;;;;;;;-139.34;100.00;63888.56;10568169;27;20703;-63
2022/03/23 06:51:29;;;;;;;;;;;;;;;-139.34;100.00;63888.56;10623883;27;19925;-63
2022/03/23 06:56:51;;;;;;;;;;;;;;;-139.34;100.00;63888.56;10612954;27;20521;-63
2022/03/23 07:02:13;;;;;;;;;;;;;;;-139.34;100.00;63888.56;10608980;27;20014;-63
2022/03/23 07:07:36;;;;;;;;;;;;;;;-139.34;100.00;63888.56;10624965;27;19919;-63
2022/03/23 07:12:58;;;;;;;;;;;;;;;-139.34;100.00;63888.56;10606565;27;19919;-62
2022/03/23 07:18:19;;;;;;;;;;;;;;;-139.34;100.00;63888.56;10637946;27;19923;-63
2022/03/23 07:23:41;;;;;;;;;;;;;;;-139.34;100.00;63888.56;10603177;27;19919;-63
2022/03/23 07:29:02;;;;;;;;;;;;;;;-139.34;100.00;63888.56;10610701;27;20385;-62
2022/03/23 07:34:24;;;;;;;;;;;;;;;-139.34;100.00;63888.56;10622611;27;19919;-63
2022/03/23 07:39:45;;;;;;;;;;;;;;;-139.34;100.00;63888.56;10610942;27;19942;-62
2022/03/23 07:45:07;;;;;;;;;;;;;;;-139.34;100.00;63888.56;10653732;27;19919;-62
2022/03/23 07:50:29;;;;;;;;;;;;;;;-139.34;100.00;63888.56;10613750;27;19919;-62
2022/03/23 07:55:50;;;;;;;;;;;;;;;-139.34;100.00;63888.56;10583136;27;19933;-62
2022/03/23 08:01:15;;;;;;;;;;;;;;;-139.34;100.00;63888.56;10598379;27;19926;-62
2022/03/23 08:06:37;;;;;;;;;;;;;;;-139.34;100.00;63888.56;10593012;27;20379;-62
2022/03/23 08:11:58;;;;;;;;;;;;;;;-139.34;100.00;63888.56;10581800;28;19989;-62
2022/03/23 08:17:20;;;;;;;;;;;;;;;-139.34;100.00;63888.56;10595427;27;19970;-62
2022/03/23 08:22:42;;;;;;;;;;;;;;;-139.34;100.00;63888.56;10565207;28;19923;-62
2022/03/23 08:28:04;;;;;;;;;;;;;;;-139.34;100.00;63888.56;10616208;27;19919;-63
2022/03/23 08:33:26;;;;;;;;;;;;;;;-139.34;100.00;63888.56;10618854;27;19927;-63
2022/03/23 08:38:48;;;;;;;;;;;;;;;-139.34;100.00;63888.56;10590368;27;19926;-62
2022/03/23 08:44:09;;;;;;;;;;;;;;;-139.34;100.00;63888.56;10604254;27;20275;-62
2022/03/23 08:49:31;;;;;;;;;;;;;;;-139.34;100.00;63888.56;10609138;27;19934;-62
2022/03/23 08:54:53;;;;;;;;;;;;;;;-139.34;100.00;63888.56;10575973;28;19930;-62
2022/03/23 09:00:15;;;;;;;;;;;;;;;-139.34;100.00;63888.56;10590948;27;20327;-63
2022/03/23 09:05:37;;;;;;;;;;;;;;;-139.34;100.00;63888.56;10648114;27;19923;-62
2022/03/23 09:10:59;;;;;;;;;;;;;;;-139.34;100.00;63888.56;10567245;27;19935;-62
2022/03/23 09:16:20;;;;;;;;;;;;;;;-139.34;100.00;63888.56;10569633;27;19923;-63
2022/03/23 09:21:42;;;;;;;;;;;;;;;-139.34;100.00;63888.56;10607377;27;19919;-63
2022/03/23 09:27:04;;;;;;;;;;;;;;;-139.34;100.00;63888.56;10603821;27;19919;-60
2022/03/23 09:32:25;;;;;;;;;;;;;;;-139.34;100.00;63888.56;10564725;27;20328;-63
2022/03/23 09:37:47;;;;;;;;;;;;;;;-139.34;100.00;63888.56;10559792;28;20037;-63
2022/03/23 09:43:09;;;;;;;;;;;;;;;-139.34;100.00;63888.56;10592880;27;19919;-63
2022/03/23 09:48:34;;;;;;;;;;;;;;;-139.34;100.00;63888.56;10651351;27;19923;-62
2022/03/23 09:53:57;;;;;;;;;;;;;;;-139.34;100.00;63888.56;10559966;28;19926;-64
2022/03/23 09:59:18;;;;;;;;;;;;;;;-139.34;100.00;63888.56;10566332;28;19953;-63
2022/03/23 10:04:49;;;;;;;;;;;;;;;-139.34;100.00;63888.56;10601107;28;19926;-62
2022/03/23 10:10:10;;;;;;;;;;;;;;;-139.34;100.00;63888.56;10601707;27;20500;-62
2022/03/23 10:15:32;;;;;;;;;;;;;;;-139.34;100.00;63888.56;10611724;27;19923;-62
2022/03/23 10:20:53;;;;;;;;;;;;;;;-139.34;100.00;63888.56;10601740;27;19938;-62
2022/03/23 10:26:15;;;;;;;;;;;;;;;-139.34;100.00;63888.56;10607401;27;19923;-63
2022/03/23 10:31:37;;;;;;;;;;;;;;;-139.34;100.00;63888.56;10637071;27;19935;-63
2022/03/23 10:36:58;;;;;;;;;;;;;;;-139.34;100.00;63888.56;10653605;27;19920;-62
2022/03/23 10:42:20;;;;;;;;;;;;;;;-139.34;100.00;63888.56;10609951;27;19919;-62
2022/03/23 10:47:44;;;;;;;;;;;;;;;-139.34;100.00;63888.56;10608079;27;20010;-63
2022/03/23 10:53:06;;;;;;;;;;;;;;;-139.34;100.00;63888.56;10621735;27;19926;-63
2022/03/23 10:58:28;;;;;;;;;;;;;;;-139.34;100.00;63888.56;10600164;27;19966;-63
2022/03/23 11:03:50;;;;;;;;;;;;;;;-139.34;100.00;63888.56;10592600;27;19925;-64
2022/03/23 11:20:52;;;;;;;22.67;14.00;;;;;;;-139.34;100.00;63888.56;10634688;27;20086;-63
2022/03/23 11:26:14;;;;;;;21.52;12.60;;;;;;;-139.34;100.00;63888.56;10602964;27;20449;-63
2022/03/23 11:31:39;;;;;;;24.45;12.20;;;;;;;-139.34;100.00;63888.56;10605791;27;20039;-63
2022/03/23 11:37:02;;;;;;;22.63;12.32;;;;;;;-139.34;100.00;63888.56;10606275;27;20054;-63
2022/03/23 11:42:24;;;;;;;25.63;12.07;;;;;;;-139.34;100.00;63888.56;10607263;27;20627;-63
2022/03/23 11:47:58;;;;;;;27.58;12.25;;;;;;;-139.34;100.00;63888.56;10612872;27;20069;-63
2022/03/23 11:53:32;;;;;;;22.05;11.55;;;;;;;-139.34;100.00;63888.56;10649609;27;20043;-63
2022/03/23 11:58:53;;;;;;;20.70;12.32;;;;;;;-139.34;100.00;63888.56;10607102;27;20054;-63
2022/03/23 12:04:18;;;;;;;20.05;12.85;;;;;;;-139.34;100.00;63888.56;10605295;27;20043;-63
2022/03/23 12:09:41;;;;;;;;;;;;;;;-139.34;100.00;63888.56;10609637;27;20365;-63
2022/03/23 12:15:22;;;;;;;;;;;;;;;-139.34;100.00;63888.56;10588569;27;20370;-64
2022/03/23 12:20:46;;;;;;;;;;;;;;;-139.34;100.00;63888.56;10593762;27;19923;-63
2022/03/23 12:26:30;;;;;;;;;;;;;;;-139.34;100.00;63888.56;10593267;27;19962;-64
2022/03/23 12:32:02;;;;;;;;;;;;;;;-139.34;100.00;63888.56;10602973;27;19923;-64
2022/03/23 12:37:34;;;;;;;;;;;;;;;-139.34;100.00;63888.56;10604046;27;20544;-63
2022/03/23 12:42:56;;;;;;;;;;;;;;;-139.34;100.00;63888.56;10591888;27;20410;-63
2022/03/23 12:59:39;;;;;;;;;;;;;;;-139.34;100.00;63888.56;10603377;27;19920;-63
2022/03/23 13:05:04;;;;;;;;;;;;;;;-139.34;100.00;63888.56;10647175;27;19955;-63
2022/03/23 13:10:25;;;;;;;;;;;;;;;-139.34;100.00;63888.56;10638333;27;20505;-63
2022/03/23 13:15:47;;;;;;;;;;;;;;;-139.34;100.00;63888.56;10603916;27;19919;-63
2022/03/23 13:21:12;;;;;;;;;;;;;;;-139.34;100.00;63888.56;10628299;27;19919;-63
2022/03/23 13:26:35;;;;;;;;;;;;;;;-139.34;100.00;63888.56;10619422;27;19972;-64
2022/03/23 13:32:02;;;;;;;;;;;;;;;-139.34;100.00;63888.56;10642657;27;19923;-64
2022/03/23 13:37:24;;;;;;;;;;;;;;;-139.34;100.00;63888.56;10623084;27;20014;-64
2022/03/23 13:48:31;;;;;;;;;;;;;;;-139.34;100.00;63888.56;10581034;28;20272;-62
2022/03/23 13:53:54;;;;;;;;;;;;;;;-139.34;100.00;63888.56;10584350;28;19923;-63
2022/03/23 13:59:16;;;;;;;;;;;;;;;-139.34;100.00;63888.56;10586407;28;19927;-62
2022/03/23 14:04:39;;;;;;;;;;;;;;;-139.34;100.00;63888.56;10562334;28;20014;-62
2022/03/23 14:10:00;;;;;;;;;;;;;;;-139.34;100.00;63888.56;10597576;28;19919;-62
2022/03/23 14:15:22;;;;;;;;;;;;;;;-139.34;100.00;63888.56;10601667;28;19937;-64
2022/03/23 14:20:52;;;;;;;;;;;;;;;-139.34;100.00;63888.56;10573978;28;19930;-63
2022/03/23 14:26:33;;;;;;;;;;;;;;;-139.34;100.00;63888.56;10585240;27;19923;-69
2022/03/23 14:31:55;;;;;;;;;;;;;;;-139.34;100.00;63888.56;10600693;28;20015;-69
2022/03/23 14:37:16;;;;;;;;;;;;;;;-139.34;100.00;63888.56;10620999;27;19919;-69
2022/03/23 14:42:38;;;;;;;;;;;;;;;-139.34;100.00;63888.56;10617077;27;19919;-69
2022/03/23 14:48:12;;;;;;;;;;;;;;;-139.34;100.00;63888.56;10629966;27;19926;-68
2022/03/23 14:53:33;;;;;;;;;;;;;;;-139.34;100.00;63888.56;10582996;28;19926;-71
2022/03/23 14:58:58;;;;;;;;;;;;;;;-139.34;100.00;63888.56;10593549;27;19926;-68
2022/03/23 15:04:20;;;;;;;;;;;;;;;-139.34;100.00;63888.56;10581562;27;20506;-72
2022/03/23 15:15:25;;;;;;;;;;;;;;;-139.34;100.00;63888.56;10582596;27;19923;-71
2022/03/23 15:20:47;;;;;;;;;;;;;;;-139.34;100.00;63888.56;10582759;27;19930;-71
2022/03/23 15:26:09;;;;;;;;;;;;;;;-139.34;100.00;63888.56;10573166;27;20071;-70
2022/03/23 15:31:31;;;;;;;;;;;;;;;-139.34;100.00;63888.56;10589502;27;19920;-72
2022/03/23 15:36:55;;;;;;;;;;;;;;;-139.34;100.00;63888.56;10586692;27;20367;-71
2022/03/23 15:47:57;;;;;;;;;;;;;;;-139.34;100.00;63888.56;10583892;27;19934;-72
2022/03/23 15:53:18;;;;;;;;;;;;;;;-139.34;100.00;63888.56;10594900;27;20291;-72
2022/03/23 15:58:41;;;;;;;;;;;;;;;-139.34;100.00;63888.56;10572493;27;19951;-72
2022/03/23 16:04:02;;;;;;;;;;;;;;;-139.34;100.00;63888.56;10584398;27;20378;-69
2022/03/23 16:09:24;;;;;;;;;;;;;;;-139.34;100.00;63888.56;10607776;27;19926;-67
2022/03/23 16:14:45;;;;;;;;;;;;;;;-139.34;100.00;63888.56;10598779;27;20364;-66
2022/03/23 16:20:11;;;;;;;;;;;;;;;-139.34;100.00;63888.56;10574718;27;19978;-67
2022/03/23 16:25:32;;;;;;;;;;;;;;;-139.34;100.00;63888.56;10574167;27;19927;-67
2022/03/23 16:30:54;;;;;;;;;;;;;;;-139.34;100.00;63888.56;10584791;27;20506;-68
2022/03/23 16:36:16;;;;;;;;;;;;;;;-139.34;100.00;63888.56;10567089;27;19923;-66
2022/03/23 16:41:40;;;;;;;;;;;;;;;-139.34;100.00;63888.56;10585286;27;20413;-65
2022/03/23 16:47:08;;;;;;;;;;;;;;;-139.34;100.00;63888.56;10586751;27;20486;-66
2022/03/23 16:52:30;;;;;;;;;;;;;;;-139.34;100.00;63888.56;10575423;27;19923;-66
2022/03/23 16:57:52;;;;;;;;;;;;;;;-139.34;100.00;63888.56;10585628;27;19919;-67
2022/03/23 17:14:34;;;;;;;;;;;;;;;-139.34;100.00;63888.56;10572357;27;20307;-66
2022/03/23 17:19:58;;;;;;;;;;;;;;;-139.34;100.00;63888.56;10587288;27;20061;-66
2022/03/23 17:25:19;;;;;;;;;;;;;;;-139.34;100.00;63888.56;10623889;27;19952;-66
2022/03/23 17:30:41;;;;;;;;;;;;;;;-139.34;100.00;63888.56;10610472;27;19920;-67
2022/03/23 17:36:03;;;;;;;;;;;;;;;-139.34;100.00;63888.56;10586822;27;20013;-66
2022/03/23 17:41:25;;;;;;;;;;;;;;;-139.34;100.00;63888.56;10570409;28;19920;-66
2022/03/23 17:46:47;;;;;;;;;;;;;;;-139.34;100.00;63888.56;10568115;28;20034;-67
2022/03/23 17:52:09;;;;;;;;;;;;;;;-139.34;100.00;63888.56;10591431;28;20540;-66
2022/03/23 17:57:30;;;;;;;;;;;;;;;-139.34;100.00;63888.56;10595153;28;19939;-66
2022/03/23 18:02:52;;;;;;;;;;;;;;;-139.34;100.00;63888.56;10596707;28;20269;-66
2022/03/23 18:08:15;;;;;;;;;;;;;;;-139.34;100.00;63888.56;10588345;28;19923;-67
2022/03/23 18:13:36;;;;;;;;;;;;;;;-139.34;100.00;63888.56;10594514;28;19927;-66
2022/03/23 18:18:58;;;;;;;;;;;;;;;-139.34;100.00;63888.56;10597421;28;19920;-64
2022/03/23 18:24:21;;;;;;;;;;;;;;;-139.34;100.00;63888.56;10580458;27;19923;-65
2022/03/23 18:29:42;;;;;;;;;;;;;;;-139.34;100.00;63888.56;10587450;28;19950;-65
2022/03/23 18:35:05;;;;;;;;;;;;;;;-139.34;100.00;63888.56;10603745;27;20472;-65
2022/03/23 18:40:26;;;;;;;;;;;;;;;-139.34;100.00;63888.56;10635951;27;19925;-64
2022/03/23 18:45:48;;;;;;;;;;;;;;;-139.34;100.00;63888.56;10587047;27;19931;-64
2022/03/23 18:51:10;;;;;;;;;;;;;;;-139.34;100.00;63888.56;10616887;27;19923;-64
2022/03/23 18:56:32;;;;;;;;;;;;;;;-139.34;100.00;63888.56;10642341;27;19923;-64
2022/03/23 19:01:54;;;;;;;;;;;;;;;-139.34;100.00;63888.56;10620641;27;19925;-64
2022/03/23 19:07:15;;;;;;;;;;;;;;;-139.34;100.00;63888.56;10586403;27;19927;-64
2022/03/23 19:12:37;;;;;;;;;;;;;;;-139.34;100.00;63888.56;10584789;27;19926;-64
2022/03/23 19:17:59;;;;;;;;;;;;;;;-139.34;100.00;63888.56;10610323;27;19958;-64
2022/03/23 19:23:20;;;;;;;;;;;;;;;-139.34;100.00;63888.56;10619405;27;19919;-64
2022/03/23 19:28:43;;;;;;;;;;;;;;;-139.34;100.00;63888.56;10599320;27;20013;-64
2022/03/23 19:34:04;;;;;;;;;;;;;;;-139.34;100.00;63888.56;10609406;27;20499;-64
2022/03/23 19:39:26;;;;;;;;;;;;;;;-139.34;100.00;63888.56;10631275;27;19927;-64
2022/03/23 19:44:47;;;;;;;;;;;;;;;-139.34;100.00;63888.56;10605094;27;19927;-64
2022/03/23 19:50:10;;;;;;;;;;;;;;;-139.34;100.00;63888.56;10619081;27;19919;-64
2022/03/23 19:55:32;;;;;;;;;;;;;;;-139.34;100.00;63888.56;10620771;27;19920;-64
2022/03/23 20:00:53;;;;;;;;;;;;;;;-139.34;100.00;63888.56;10604109;27;20509;-64
2022/03/23 20:06:15;;;;;;;;;;;;;;;-139.34;100.00;63888.56;10603418;27;20009;-64
2022/03/23 20:11:37;;;;;;;;;;;;;;;-139.34;100.00;63888.56;10610312;27;20387;-64
2022/03/23 20:17:00;;;;;;;;;;;;;;;-139.34;100.00;63888.56;10592131;27;19935;-64
2022/03/23 20:22:23;;;;;;;;;;;;;;;-139.34;100.00;63888.56;10587800;27;19919;-64
2022/03/23 20:27:45;;;;;;;;;;;;;;;-139.34;100.00;63888.56;10605363;27;19920;-64
2022/03/23 20:33:07;;;;;;;;;;;;;;;-139.34;100.00;63888.56;10604263;27;19919;-65
2022/03/23 20:38:28;;;;;;;;;;;;;;;-139.34;100.00;63888.56;10570565;28;19919;-65
2022/03/23 20:43:50;;;;;;;;;;;;;;;-139.34;100.00;63888.56;10579608;27;19931;-64
2022/03/23 20:49:12;;;;;;;;;;;;;;;-139.34;100.00;63888.56;10589738;27;19976;-64
2022/03/23 20:54:34;;;;;;;;;;;;;;;-139.34;100.00;63888.56;10593140;27;19923;-64
2022/03/23 20:59:56;;;;;;;;;;;;;;;-139.34;100.00;63888.56;10589378;27;19961;-64
2022/03/23 21:05:19;;;;;;;;;;;;;;;-139.34;100.00;63888.56;10643724;27;19925;-64
2022/03/23 21:10:41;;;;;;;;;;;;;;;-139.34;100.00;63888.56;10617824;27;19923;-64
2022/03/23 21:16:03;;;;;;;;;;;;;;;-139.34;100.00;63888.56;10617441;27;19930;-64
2022/03/23 21:21:24;;;;;;;;;;;;;;;-139.34;100.00;63888.56;10601488;27;20390;-64
2022/03/23 21:26:47;;;;;;;;;;;;;;;-139.34;100.00;63888.56;10573482;27;19919;-63
2022/03/23 21:32:09;;;;;;;;;;;;;;;-139.34;100.00;63888.56;10563709;28;19919;-64
2022/03/23 21:37:31;;;;;;;;;;;;;;;-139.34;100.00;63888.56;10598432;27;19923;-64
2022/03/23 21:42:53;;;;;;;;;;;;;;;-139.34;100.00;63888.56;10632308;27;19923;-63
2022/03/23 21:48:14;;;;;;;;;;;;;;;-139.34;100.00;63888.56;10593797;27;19927;-63
2022/03/23 21:53:36;;;;;;;;;;;;;;;-139.34;100.00;63888.56;10560805;28;19924;-64
2022/03/23 21:58:58;;;;;;;;;;;;;;;-139.34;100.00;63888.56;10573712;28;19938;-64
2022/03/23 22:04:19;;;;;;;;;;;;;;;-139.34;100.00;63888.56;10590868;27;19919;-64
2022/03/23 22:09:41;;;;;;;;;;;;;;;-139.34;100.00;63888.56;10643397;27;19926;-64
2022/03/23 22:15:07;;;;;;;;;;;;;;;-139.34;100.00;63888.56;10615390;27;20302;-64
2022/03/23 22:20:29;;;;;;;;;;;;;;;-139.34;100.00;63888.56;10629366;27;19918;-64
2022/03/23 22:25:51;;;;;;;;;;;;;;;-139.34;100.00;63888.56;10616463;27;19923;-64
2022/03/23 22:31:12;;;;;;;;;;;;;;;-139.34;100.00;63888.56;10618703;27;19919;-63
2022/03/23 22:36:34;;;;;;;;;;;;;;;-139.34;100.00;63888.56;10620324;27;20042;-64
2022/03/23 22:41:56;;;;;;;;;;;;;;;-139.34;100.00;63888.56;10664330;27;19923;-64
2022/03/23 22:47:22;;;;;;;;;;;;;;;-139.34;100.00;63888.56;10607817;27;20283;-64
2022/03/23 22:52:45;;;;;;;;;;;;;;;-139.34;100.00;63888.56;10589500;27;19927;-64
2022/03/23 22:58:06;;;;;;;;;;;;;;;-139.34;100.00;63888.56;10565921;28;19977;-64
2022/03/23 23:03:28;;;;;;;;;;;;;;;-139.34;100.00;63888.56;10590340;27;19919;-64
2022/03/23 23:08:49;;;;;;;;;;;;;;;-139.34;100.00;63888.56;10566153;28;19926;-65
2022/03/23 23:14:11;;;;;;;;;;;;;;;-139.34;100.00;63888.56;10602866;27;19926;-64
2022/03/23 23:19:33;;;;;;;;;;;;;;;-139.34;100.00;63888.56;10632436;27;20411;-64
2022/03/23 23:24:54;;;;;;;;;;;;;;;-139.34;100.00;63888.56;10609311;27;19937;-65
2022/03/23 23:30:17;;;;;;;;;;;;;;;-139.34;100.00;63888.56;10609389;27;20155;-64
2022/03/23 23:35:39;;;;;;;;;;;;;;;-139.34;100.00;63888.56;10584033;27;19923;-64
2022/03/23 23:41:01;;;;;;;;;;;;;;;-139.34;100.00;63888.56;10602346;28;19919;-65
2022/03/23 23:46:23;;;;;;;;;;;;;;;-139.34;100.00;63888.56;10581643;27;19919;-64
2022/03/23 23:51:45;;;;;;;;;;;;;;;-139.34;100.00;63888.56;10592778;27;19924;-63
2022/03/23 23:57:06;;;;;;;;;;;;;;;-139.34;100.00;63888.56;10613452;27;19919;-64
